createdAt,value
2022-08-16T00:02:45.410Z,99732.00
2022-08-16T00:08:49.115Z,99738.00
2022-08-16T00:14:51.647Z,99729.00
2022-08-16T00:20:59.708Z,99740.00
2022-08-16T00:27:03.828Z,99749.00
2022-08-16T00:33:06.867Z,99754.00
2022-08-16T00:39:15.435Z,99743.00
2022-08-16T00:45:25.134Z,99753.00
2022-08-16T00:51:29.583Z,99739.00
2022-08-16T00:57:58.866Z,99739.00
2022-08-16T01:03:55.310Z,99730.00
2022-08-16T01:09:57.546Z,99745.00
2022-08-16T01:16:11.126Z,99743.00
2022-08-16T01:22:49.483Z,99732.00
2022-08-16T01:28:49.196Z,99738.00
2022-08-16T01:34:53.839Z,99737.00
2022-08-16T01:41:07.906Z,99735.00
2022-08-16T01:47:12.250Z,99732.00
2022-08-16T01:53:14.352Z,99722.00
2022-08-16T01:59:36.035Z,99727.00
2022-08-16T02:05:40.600Z,99720.00
2022-08-16T02:11:54.816Z,99720.00
2022-08-16T02:17:59.296Z,99727.00
2022-08-16T02:24:32.166Z,99732.00
2022-08-16T02:30:36.747Z,99726.00
2022-08-16T02:36:47.833Z,99721.00
2022-08-16T02:42:55.362Z,99720.00
2022-08-16T02:49:00.181Z,99720.00
2022-08-16T02:55:04.780Z,99726.00
2022-08-16T03:01:07.894Z,99735.00
2022-08-16T03:07:11.986Z,99734.00
2022-08-16T03:13:24.275Z,99749.00
2022-08-16T03:19:48.330Z,99746.00
2022-08-16T03:25:53.656Z,99744.00
2022-08-16T03:31:56.274Z,99747.00
2022-08-16T03:38:33.461Z,99744.00
2022-08-16T03:44:43.895Z,99749.00
2022-08-16T03:50:59.991Z,99753.00
2022-08-16T03:57:05.293Z,99759.00
2022-08-16T04:03:09.090Z,99753.00
2022-08-16T04:09:15.684Z,99742.00
2022-08-16T04:15:18.439Z,99740.00
2022-08-16T04:21:47.307Z,99738.00
2022-08-16T04:27:56.296Z,99733.00
2022-08-16T04:33:59.734Z,99727.00
2022-08-16T04:40:05.587Z,99731.00
2022-08-16T04:46:26.526Z,99729.00
2022-08-16T04:52:35.074Z,99745.00
2022-08-16T04:58:45.844Z,99737.00
2022-08-16T05:04:50.922Z,99730.00
2022-08-16T05:11:00.004Z,99723.00
2022-08-16T05:17:03.505Z,99722.00
2022-08-16T05:23:06.330Z,99707.00
2022-08-16T05:29:15.203Z,99646.00
2022-08-16T05:35:33.347Z,99641.00
2022-08-16T05:41:46.384Z,99649.00
2022-08-16T05:47:59.652Z,99663.00
2022-08-16T05:54:07.738Z,99665.00
2022-08-16T06:00:12.812Z,99661.00
2022-08-16T06:06:28.014Z,99668.00
2022-08-16T06:12:33.212Z,99669.00
2022-08-16T06:18:39.959Z,99663.00
2022-08-16T06:24:54.155Z,99659.00
2022-08-16T06:30:59.147Z,99659.00
2022-08-16T06:37:07.615Z,99663.00
2022-08-16T06:43:12.517Z,99681.00
2022-08-16T06:49:21.178Z,99679.00
2022-08-16T06:55:23.814Z,99682.00
2022-08-16T07:01:45.072Z,99684.00
2022-08-16T07:07:54.024Z,99690.00
2022-08-16T07:14:04.012Z,99685.00
2022-08-16T07:20:35.295Z,99691.00
2022-08-16T07:26:38.790Z,99698.00
2022-08-16T07:32:41.585Z,99697.00
2022-08-16T07:38:55.544Z,99697.00
2022-08-16T07:44:58.961Z,99689.00
2022-08-16T07:51:08.887Z,99697.00
2022-08-16T07:57:12.597Z,99695.00
2022-08-16T08:03:17.205Z,99707.00
2022-08-16T08:09:19.795Z,99694.00
2022-08-16T08:15:26.308Z,99691.00
2022-08-16T08:22:01.380Z,99698.00
2022-08-16T08:27:57.665Z,99693.00
2022-08-16T08:34:01.752Z,99700.00
2022-08-16T08:40:11.669Z,99702.00
2022-08-16T08:46:21.233Z,99699.00
2022-08-16T08:52:34.966Z,99693.00
2022-08-16T08:58:39.693Z,99686.00
2022-08-16T09:05:15.233Z,99673.00
2022-08-16T09:11:20.250Z,99680.00
2022-08-16T09:17:51.548Z,99682.00
2022-08-16T09:23:47.424Z,99682.00
2022-08-16T09:30:00.309Z,99676.00
2022-08-16T09:36:03.229Z,99681.00
2022-08-16T09:42:05.522Z,99681.00
2022-08-16T09:48:36.894Z,99691.00
2022-08-16T09:54:39.383Z,99688.00
2022-08-16T10:00:47.271Z,99688.00
2022-08-16T10:06:49.918Z,99689.00
2022-08-16T10:13:10.676Z,99690.00
2022-08-16T10:19:13.833Z,99694.00
2022-08-16T10:27:20.111Z,99697.00
2022-08-16T10:31:46.316Z,99698.00
2022-08-16T10:37:49.534Z,99698.00
2022-08-16T10:43:54.836Z,99690.00
2022-08-16T10:49:59.737Z,99698.00
2022-08-16T10:56:05.358Z,99683.00
2022-08-16T11:02:58.163Z,99684.00
2022-08-16T11:09:20.827Z,99671.00
2022-08-16T11:15:13.329Z,99675.00
2022-08-16T11:21:29.162Z,99671.00
2022-08-16T11:27:35.584Z,99670.00
2022-08-16T11:33:55.063Z,99673.00
2022-08-16T11:39:59.940Z,99664.00
2022-08-16T11:46:43.196Z,99659.00
2022-08-16T11:52:28.426Z,99617.00
2022-08-16T11:58:32.017Z,99593.00
2022-08-16T12:04:36.128Z,99584.00
2022-08-16T12:10:41.082Z,99663.00
2022-08-16T12:16:48.797Z,99549.00
2022-08-16T12:22:58.809Z,99562.00
2022-08-16T12:29:04.262Z,99568.00
2022-08-16T12:35:09.557Z,99575.00
2022-08-16T12:41:11.829Z,99575.00
2022-08-16T12:47:33.231Z,99577.00
2022-08-16T12:53:39.861Z,99565.00
2022-08-16T12:59:43.505Z,99562.00
2022-08-16T13:05:53.577Z,99554.00
2022-08-16T13:12:07.741Z,99627.00
2022-08-16T13:18:27.519Z,99641.00
2022-08-16T13:24:35.284Z,99664.00
2022-08-16T13:30:44.325Z,99639.00
2022-08-16T13:36:49.461Z,99666.00
2022-08-16T13:42:56.358Z,99655.00
2022-08-16T13:48:59.401Z,99645.00
2022-08-16T13:55:02.285Z,99635.00
2022-08-16T14:01:09.734Z,99654.00
2022-08-16T14:07:19.884Z,99642.00
2022-08-16T14:13:26.772Z,99636.00
2022-08-16T14:19:30.008Z,99635.00
2022-08-16T14:25:33.607Z,99648.00
2022-08-16T14:31:39.337Z,99650.00
2022-08-16T14:37:43.194Z,99669.00
2022-08-16T14:43:45.480Z,99674.00
2022-08-16T14:49:47.955Z,99677.00
2022-08-16T14:55:55.487Z,99677.00
2022-08-16T15:02:00.521Z,99665.00
2022-08-16T15:08:06.865Z,99680.00
2022-08-16T15:14:09.861Z,99669.00
2022-08-16T15:20:17.960Z,99680.00
2022-08-16T15:26:34.564Z,99665.00
2022-08-16T15:32:43.913Z,99654.00
2022-08-16T15:38:57.920Z,99662.00
2022-08-16T15:45:12.240Z,99669.00
2022-08-16T15:51:15.636Z,99667.00
2022-08-16T15:57:18.423Z,99670.00
2022-08-16T16:03:23.353Z,99674.00
2022-08-16T16:09:36.797Z,99669.00
2022-08-16T16:15:45.867Z,99682.00
2022-08-16T16:21:49.276Z,99686.00
2022-08-16T16:27:59.871Z,99689.00
2022-08-16T16:34:03.506Z,99694.00
2022-08-16T16:40:10.520Z,99700.00
2022-08-16T16:46:41.433Z,99711.00
2022-08-16T16:52:44.677Z,99727.00
2022-08-16T16:58:57.164Z,99725.00
2022-08-16T17:04:59.397Z,99736.00
2022-08-16T17:11:01.640Z,99733.00
2022-08-16T17:17:08.738Z,99732.00
2022-08-16T17:23:11.148Z,99740.00
2022-08-16T17:29:13.526Z,99759.00
2022-08-16T17:35:21.608Z,99769.00
2022-08-16T17:41:25.147Z,99769.00
2022-08-16T17:47:27.644Z,99779.00
2022-08-16T17:53:31.100Z,99777.00
2022-08-16T17:59:35.519Z,99781.00
2022-08-16T18:05:44.723Z,99783.00
2022-08-16T18:11:47.283Z,99780.00
2022-08-16T18:17:53.486Z,99796.00
2022-08-16T18:23:55.603Z,99794.00
2022-08-16T18:29:57.964Z,99794.00
2022-08-16T18:36:00.236Z,99784.00
2022-08-16T18:42:10.522Z,99784.00
2022-08-16T18:48:13.543Z,99784.00
2022-08-16T18:54:18.512Z,99787.00
2022-08-16T19:00:23.684Z,99796.00
2022-08-16T19:06:26.135Z,99800.00
2022-08-16T19:12:38.322Z,99794.00
2022-08-16T19:18:44.536Z,99800.00
2022-08-16T19:24:46.815Z,99806.00
2022-08-16T19:30:49.087Z,99801.00
2022-08-16T19:36:51.462Z,99810.00
2022-08-16T19:42:53.565Z,99805.00
2022-08-16T19:48:55.784Z,99813.00
2022-08-16T19:55:03.614Z,99802.00
2022-08-16T20:01:05.903Z,99810.00
2022-08-16T20:07:08.184Z,99812.00
2022-08-16T20:13:16.057Z,99818.00
2022-08-16T20:19:18.151Z,99817.00
2022-08-16T20:25:28.293Z,99809.00
2022-08-16T20:31:30.945Z,99818.00
2022-08-16T20:37:33.511Z,99819.00
2022-08-16T20:43:35.829Z,99826.00
2022-08-16T20:49:39.370Z,99825.00
2022-08-16T20:55:42.056Z,99829.00
2022-08-16T21:01:46.813Z,99839.00
2022-08-16T21:07:53.012Z,99845.00
2022-08-16T21:14:00.427Z,99847.00
2022-08-16T21:20:03.266Z,99850.00
2022-08-16T21:26:10.697Z,99857.00
2022-08-16T21:32:18.301Z,99850.00
2022-08-16T21:38:28.579Z,99846.00
2022-08-16T21:44:38.621Z,99872.00
2022-08-16T21:50:43.856Z,99865.00
2022-08-16T21:56:46.322Z,99869.00
2022-08-16T22:02:51.434Z,99861.00
2022-08-16T22:08:53.734Z,99855.00
2022-08-16T22:14:56.188Z,99868.00
2022-08-16T22:20:58.440Z,99854.00
2022-08-16T22:27:00.663Z,99862.00
2022-08-16T22:33:10.031Z,99851.00
2022-08-16T22:39:13.581Z,99851.00
2022-08-16T22:45:18.651Z,99845.00
2022-08-16T22:51:22.560Z,99851.00
2022-08-16T22:57:24.886Z,99843.00
2022-08-16T23:03:27.194Z,99849.00
2022-08-16T23:09:29.466Z,99843.00
2022-08-16T23:15:39.903Z,99841.00
2022-08-16T23:21:45.394Z,99842.00
2022-08-16T23:27:48.386Z,99850.00
2022-08-16T23:33:50.583Z,99826.00
2022-08-16T23:39:54.654Z,99826.00
2022-08-16T23:46:01.103Z,99824.00
2022-08-16T23:52:07.964Z,99823.00
2022-08-16T23:58:12.154Z,99826.00
